Time;durP1;ratioP1;P1;durP2;ratioP2;P2;SDS_P1;SDS_P2;PMS_P1;PMS_P2;Temp;Humidity;BMP_temperature;BMP_pressure;BME280_temperature;BME280_humidity;BME280_pressure;Samples;Min_cycle;Max_cycle;Signal;HPM_P1;HPM_P2
2021/06/18 00:02:09;;;;;;;5.20;3.35;;;;;;;20.68;66.01;101240.75;5029743;28;20125;-65
2021/06/18 00:04:36;;;;;;;6.35;3.25;;;;;;;20.73;66.07;101238.00;5028731;28;20079;-64
2021/06/18 00:07:04;;;;;;;4.18;3.10;;;;;;;20.65;66.07;101240.84;5030609;28;20093;-64
2021/06/18 00:09:31;;;;;;;6.30;3.33;;;;;;;20.60;66.27;101233.78;5029319;28;20041;-65
2021/06/18 00:11:59;;;;;;;8.13;3.60;;;;;;;20.60;66.28;101240.03;5029000;28;20073;-64
2021/06/18 00:14:26;;;;;;;6.43;3.53;;;;;;;20.57;66.32;101231.13;5029098;28;20124;-65
2021/06/18 00:16:55;;;;;;;8.32;3.80;;;;;;;20.46;66.27;101227.78;5028956;28;20493;-64
2021/06/18 00:19:23;;;;;;;7.53;3.20;;;;;;;20.28;66.82;101229.81;5028742;28;20557;-65
2021/06/18 00:21:50;;;;;;;6.13;3.42;;;;;;;20.22;67.24;101226.34;5030096;28;20034;-65
2021/06/18 00:24:18;;;;;;;5.43;3.28;;;;;;;20.34;66.92;101226.19;5030085;28;20052;-65
2021/06/18 00:26:45;;;;;;;4.07;2.70;;;;;;;20.36;66.90;101224.34;5028670;28;20102;-65
2021/06/18 00:29:13;;;;;;;6.65;3.40;;;;;;;20.25;66.55;101229.00;5029471;28;20072;-65
2021/06/18 00:31:40;;;;;;;6.22;3.50;;;;;;;20.27;66.46;101232.53;5029160;28;20045;-65
2021/06/18 00:34:09;;;;;;;7.47;3.63;;;;;;;20.22;66.11;101231.69;5029523;28;20044;-65
2021/06/18 00:36:37;;;;;;;4.50;3.05;;;;;;;20.10;66.16;101230.13;5029897;28;20128;-65
2021/06/18 00:39:06;;;;;;;5.38;3.28;;;;;;;20.16;65.77;101229.13;5029774;28;20438;-64
2021/06/18 00:41:33;;;;;;;4.88;3.03;;;;;;;20.20;65.48;101234.44;5029319;28;20516;-65
2021/06/18 00:44:01;;;;;;;5.53;3.88;;;;;;;20.27;65.03;101229.84;5029021;28;20038;-65
2021/06/18 00:46:28;;;;;;;6.18;3.60;;;;;;;20.25;64.80;101227.19;5029257;28;20545;-65
2021/06/18 00:48:56;;;;;;;4.13;3.03;;;;;;;20.25;65.06;101231.66;5028336;28;20069;-65
2021/06/18 00:51:25;;;;;;;4.85;3.10;;;;;;;20.25;64.92;101227.19;5029250;28;20041;-65
2021/06/18 00:53:54;;;;;;;7.63;3.22;;;;;;;20.28;64.75;101220.91;5028333;28;20049;-64
2021/06/18 00:56:22;;;;;;;4.97;3.08;;;;;;;20.30;64.89;101224.41;5028636;28;20823;-64
2021/06/18 00:58:50;;;;;;;4.18;2.75;;;;;;;20.30;64.57;101221.75;5027601;28;20042;-65
2021/06/18 01:01:17;;;;;;;6.28;3.05;;;;;;;20.22;64.74;101220.97;5028705;28;20164;-65
2021/06/18 01:03:45;;;;;;;4.93;2.95;;;;;;;20.06;65.24;101216.78;5029486;28;20466;-65
2021/06/18 01:06:17;;;;;;;4.47;2.80;;;;;;;20.01;65.31;101218.66;5028785;28;20060;-65
2021/06/18 01:08:54;;;;;;;4.97;3.33;;;;;;;19.93;65.18;101213.44;5028554;28;20056;-65
2021/06/18 01:11:31;;;;;;;7.00;3.00;;;;;;;19.85;65.43;101216.22;5048431;28;20401;-66
2021/06/18 01:14:03;;;;;;;5.30;2.83;;;;;;;19.80;65.54;101218.09;5048360;28;20041;-65
2021/06/18 01:16:35;;;;;;;8.38;3.45;;;;;;;19.74;65.54;101217.28;5049005;28;20124;-64
2021/06/18 01:19:10;;;;;;;4.65;3.08;;;;;;;19.59;65.76;101222.84;5049407;28;20458;-64
2021/06/18 01:21:41;;;;;;;5.22;2.72;;;;;;;19.50;66.25;101218.50;5047829;28;20052;-65
2021/06/18 01:24:43;;;;;;;4.05;2.83;;;;;;;19.68;65.81;101212.91;5048226;28;20036;-65
2021/06/18 01:27:27;;;;;;;4.65;2.63;;;;;;;19.79;65.11;101216.31;5047961;28;20396;-65
2021/06/18 01:30:00;;;;;;;6.60;2.70;;;;;;;19.80;64.93;101217.19;5031292;28;20636;-65
2021/06/18 01:32:37;;;;;;;4.40;2.90;;;;;;;19.84;64.46;101218.91;5029248;28;20045;-65
2021/06/18 01:35:07;;;;;;;4.05;2.65;;;;;;;19.84;64.29;101214.44;5028373;28;20039;-65
2021/06/18 01:37:36;;;;;;;4.85;2.88;;;;;;;19.85;64.14;101224.25;5028936;28;20046;-65
2021/06/18 01:40:09;;;;;;;3.65;2.40;;;;;;;19.67;64.26;101221.84;5029023;28;20095;-64
2021/06/18 01:42:39;;;;;;;5.07;2.72;;;;;;;19.57;64.46;101219.31;5028840;28;20132;-65
2021/06/18 01:45:11;;;;;;;3.80;2.60;;;;;;;19.61;64.45;101218.38;5029045;28;24673;-65
2021/06/18 01:47:40;;;;;;;4.18;2.67;;;;;;;19.51;64.32;101212.25;5029035;28;20033;-64
2021/06/18 01:50:09;;;;;;;4.18;2.53;;;;;;;19.54;64.14;101212.22;5028315;28;20056;-64
2021/06/18 01:52:39;;;;;;;3.72;2.42;;;;;;;19.61;64.02;101213.03;5028612;28;21814;-65
2021/06/18 01:55:09;;;;;;;6.28;2.80;;;;;;;19.66;63.86;101216.50;5027838;28;20048;-65
2021/06/18 01:57:39;;;;;;;3.78;2.53;;;;;;;19.56;64.17;101214.88;5027693;28;20100;-64
2021/06/18 02:00:10;;;;;;;7.70;2.85;;;;;;;19.52;63.92;101218.50;5027618;28;20620;-65
2021/06/18 02:02:38;;;;;;;5.75;2.70;;;;;;;19.39;64.37;101220.41;5032101;28;20067;-65
2021/06/18 02:05:08;;;;;;;3.22;2.40;;;;;;;19.30;64.67;101215.16;5032355;28;20100;-64
2021/06/18 02:07:38;;;;;;;5.20;2.50;;;;;;;19.31;64.64;101216.94;5032412;28;20124;-65
2021/06/18 02:10:07;;;;;;;6.63;2.60;;;;;;;19.24;64.67;101215.25;5031677;28;20109;-65
2021/06/18 02:12:37;;;;;;;4.18;2.35;;;;;;;19.28;64.45;101212.53;5030772;28;20053;-65
2021/06/18 02:15:07;;;;;;;4.60;2.53;;;;;;;19.22;64.52;101215.28;5032015;28;20117;-65
2021/06/18 02:17:39;;;;;;;5.65;2.65;;;;;;;19.20;64.47;101213.53;5031017;28;20100;-65
2021/06/18 02:20:09;;;;;;;4.03;2.78;;;;;;;19.21;64.70;101215.31;5032387;28;20037;-64
2021/06/18 02:22:37;;;;;;;3.70;2.60;;;;;;;19.15;64.86;101216.28;5032573;28;20037;-64
2021/06/18 02:25:07;;;;;;;4.05;2.65;;;;;;;19.04;65.08;101215.50;5031723;28;20041;-64
2021/06/18 02:27:35;;;;;;;4.00;2.50;;;;;;;18.99;65.47;101220.91;5032501;28;20550;-64
2021/06/18 02:30:04;;;;;;;4.70;2.60;;;;;;;19.07;65.06;101218.16;5031592;28;20400;-65
2021/06/18 02:32:36;;;;;;;3.80;2.72;;;;;;;19.16;65.00;101207.34;5031978;28;20551;-64
2021/06/18 02:35:05;;;;;;;10.27;2.97;;;;;;;19.19;64.81;101209.97;5031885;28;20136;-64
2021/06/18 02:37:32;;;;;;;3.88;2.60;;;;;;;19.12;64.87;101210.94;5031611;28;20120;-65
2021/06/18 02:40:01;;;;;;;4.35;2.72;;;;;;;19.02;65.17;101215.53;5031271;28;20043;-65
2021/06/18 02:42:28;;;;;;;5.15;3.03;;;;;;;18.91;65.65;101222.78;5032072;28;20041;-65
2021/06/18 02:44:56;;;;;;;6.15;2.65;;;;;;;18.99;65.55;101222.69;5031698;28;20041;-65
2021/06/18 02:47:30;;;;;;;4.88;2.78;;;;;;;18.98;65.19;101216.47;5031658;28;20041;-65
2021/06/18 02:50:01;;;;;;;;;;;;;;;18.89;65.58;101210.34;5031713;28;20591;-65
2021/06/18 02:52:42;;;;;;;4.50;2.80;;;;;;;18.87;65.69;101215.69;5031335;28;19921;-65
2021/06/18 02:55:14;;;;;;;4.82;3.00;;;;;;;18.86;65.79;101213.94;5029785;28;20040;-65
2021/06/18 02:57:49;;;;;;;5.15;3.00;;;;;;;18.89;65.89;101219.25;5030400;28;20045;-65
2021/06/18 03:00:19;;;;;;;4.50;2.78;;;;;;;18.97;65.74;101212.00;5030917;28;20451;-65
2021/06/18 03:02:50;;;;;;;4.43;3.05;;;;;;;19.03;65.64;101216.44;5031484;28;20037;-65
2021/06/18 03:05:22;;;;;;;6.00;3.05;;;;;;;19.14;65.24;101214.50;5030538;28;20038;-65
2021/06/18 03:07:55;;;;;;;6.18;3.10;;;;;;;19.15;65.35;101218.94;5031613;28;20061;-65
2021/06/18 03:10:26;;;;;;;8.32;3.47;;;;;;;19.10;65.40;101216.31;5031384;28;20130;-65
2021/06/18 03:13:00;;;;;;;6.18;3.33;;;;;;;19.18;65.32;101209.97;5029754;28;20046;-65
2021/06/18 03:15:30;;;;;;;5.47;2.90;;;;;;;19.25;65.61;101222.38;5029614;28;20034;-64
2021/06/18 03:18:00;;;;;;;6.78;2.80;;;;;;;19.31;65.83;101228.53;5031268;28;20072;-65
2021/06/18 03:20:30;;;;;;;4.00;2.15;;;;;;;19.40;65.86;101224.88;5030939;28;20083;-65
2021/06/18 03:23:02;;;;;;;4.63;2.65;;;;;;;19.46;65.85;101227.50;5030878;28;20042;-65
2021/06/18 03:25:30;;;;;;;4.47;2.42;;;;;;;19.48;65.97;101221.22;5031009;28;20466;-65
2021/06/18 03:27:58;;;;;;;4.60;2.70;;;;;;;19.58;66.29;101224.66;5029729;28;20034;-65
2021/06/18 03:30:27;;;;;;;5.32;2.40;;;;;;;19.63;66.63;101219.22;5031135;28;20125;-65
2021/06/18 03:32:56;;;;;;;4.53;2.20;;;;;;;19.81;66.62;101217.19;5031227;28;20033;-65
2021/06/18 03:35:24;;;;;;;5.93;2.35;;;;;;;20.00;66.33;101222.25;5030050;28;20041;-65
2021/06/18 03:37:54;;;;;;;4.32;2.35;;;;;;;20.23;66.22;101218.28;5030942;28;20148;-64
2021/06/18 03:40:22;;;;;;;6.50;2.70;;;;;;;20.39;65.83;101224.31;5030525;28;20041;-65
2021/06/18 03:42:51;;;;;;;4.50;2.38;;;;;;;20.52;65.79;101219.63;5030530;28;20037;-65
2021/06/18 03:45:21;;;;;;;5.18;2.42;;;;;;;20.65;65.35;101221.16;5031061;28;20055;-65
2021/06/18 03:47:50;;;;;;;6.70;2.33;;;;;;;20.82;65.08;101224.41;5031026;28;20029;-64
2021/06/18 03:50:21;;;;;;;3.50;2.10;;;;;;;20.99;64.29;101218.72;5032191;28;20120;-65
2021/06/18 03:52:48;;;;;;;5.20;1.85;;;;;;;21.18;64.32;101213.91;5030624;28;20046;-65
2021/06/18 03:55:17;;;;;;;2.85;1.92;;;;;;;21.33;63.65;101214.44;5049504;28;20493;-65
2021/06/18 03:57:48;;;;;;;3.50;2.22;;;;;;;21.55;63.40;101212.16;5050235;28;20505;-65
2021/06/18 04:00:19;;;;;;;5.40;3.25;;;;;;;21.76;63.36;101211.69;5050250;28;20564;-65
2021/06/18 04:02:48;;;;;;;2.95;1.90;;;;;;;21.94;62.78;101213.06;5050380;28;20397;-65
2021/06/18 04:05:17;;;;;;;5.35;2.60;;;;;;;22.10;62.47;101213.59;5029914;28;20045;-65
2021/06/18 04:07:47;;;;;;;4.35;1.98;;;;;;;22.22;62.51;101207.91;5030266;28;20047;-66
2021/06/18 04:10:18;;;;;;;2.55;1.65;;;;;;;22.35;61.31;101216.56;5030230;28;20092;-66
2021/06/18 04:12:49;;;;;;;2.03;1.45;;;;;;;22.49;60.58;101209.03;5029870;28;20577;-65
2021/06/18 04:15:18;;;;;;;2.25;1.52;;;;;;;22.69;59.87;101211.19;5049996;28;20041;-65
2021/06/18 04:17:47;;;;;;;2.83;1.65;;;;;;;22.93;58.72;101211.41;5030300;28;20037;-66
2021/06/18 04:20:15;;;;;;;1.50;1.30;;;;;;;23.18;57.89;101213.41;5029008;28;20168;-65
2021/06/18 04:22:43;;;;;;;3.15;1.60;;;;;;;23.36;57.13;101212.88;5029650;28;20141;-65
2021/06/18 04:25:12;;;;;;;3.20;1.40;;;;;;;23.59;56.75;101220.28;5029805;28;20040;-66
2021/06/18 04:27:41;;;;;;;1.90;1.30;;;;;;;23.84;56.04;101214.06;5027750;28;20287;-65
2021/06/18 04:30:12;;;;;;;2.58;1.40;;;;;;;24.08;55.18;101215.13;5028817;28;20045;-65
2021/06/18 04:32:39;;;;;;;2.45;1.60;;;;;;;24.30;54.57;101211.72;5029208;28;20560;-65
2021/06/18 04:35:09;;;;;;;1.83;1.35;;;;;;;24.50;53.91;101220.91;5028964;28;20402;-66
2021/06/18 04:37:37;;;;;;;3.53;1.30;;;;;;;24.80;53.24;101216.25;5028998;28;20046;-65
2021/06/18 04:40:06;;;;;;;1.80;1.20;;;;;;;25.02;52.26;101210.97;5028560;28;20106;-65
2021/06/18 04:42:34;;;;;;;1.73;1.30;;;;;;;25.25;51.26;101216.41;5029483;28;20080;-66
2021/06/18 04:45:05;;;;;;;3.00;1.30;;;;;;;25.56;49.98;101220.63;5028079;28;20052;-66
2021/06/18 04:47:33;;;;;;;2.40;1.10;;;;;;;25.82;49.27;101216.91;5029402;28;20152;-66
2021/06/18 04:50:00;;;;;;;6.68;1.48;;;;;;;26.16;48.55;101214.59;5028781;28;20038;-65
2021/06/18 04:52:28;;;;;;;2.85;1.23;;;;;;;26.47;47.50;101208.78;5028433;28;20124;-65
2021/06/18 04:54:57;;;;;;;2.83;1.30;;;;;;;26.78;47.21;101217.34;5029301;28;20038;-66
2021/06/18 04:57:25;;;;;;;1.60;1.10;;;;;;;27.15;46.55;101221.16;5028298;28;20582;-66
2021/06/18 04:59:52;;;;;;;3.92;1.17;;;;;;;27.47;45.46;101220.53;5027840;28;20433;-66
2021/06/18 05:02:22;;;;;;;2.28;1.40;;;;;;;27.83;44.52;101222.50;5028196;28;20133;-66
2021/06/18 05:04:49;;;;;;;1.90;1.20;;;;;;;28.06;43.71;101219.50;5028497;28;20124;-66
2021/06/18 05:07:16;;;;;;;1.63;0.90;;;;;;;28.30;42.27;101221.03;5029378;28;20120;-65
2021/06/18 05:09:44;;;;;;;1.38;1.10;;;;;;;28.64;41.39;101225.63;5046042;28;20047;-65
2021/06/18 05:12:12;;;;;;;1.80;0.80;;;;;;;28.90;39.62;101222.44;5031746;28;20133;-65
2021/06/18 05:14:39;;;;;;;2.15;0.88;;;;;;;29.13;38.48;101217.63;5028071;28;20393;-65
2021/06/18 05:17:06;;;;;;;1.70;0.70;;;;;;;29.37;36.63;101218.13;5028722;28;20113;-66
2021/06/18 05:19:36;;;;;;;1.63;0.75;;;;;;;29.53;36.31;101211.78;5028519;28;20125;-66
2021/06/18 05:22:04;;;;;;;1.98;0.80;;;;;;;29.82;35.87;101217.38;5029131;28;20030;-66
2021/06/18 05:24:32;;;;;;;2.00;0.77;;;;;;;30.02;33.54;101209.88;5028073;28;20141;-65
2021/06/18 05:27:00;;;;;;;3.30;0.70;;;;;;;30.31;32.80;101216.34;5028644;28;20099;-66
2021/06/18 05:29:28;;;;;;;2.95;0.82;;;;;;;30.63;31.26;101216.28;5029032;28;20045;-66
2021/06/18 05:31:55;;;;;;;0.85;0.57;;;;;;;30.85;30.35;101209.41;5027356;28;20041;-66
2021/06/18 05:34:23;;;;;;;1.77;0.80;;;;;;;31.18;30.11;101216.50;5028326;28;20056;-66
2021/06/18 05:36:53;;;;;;;1.58;0.50;;;;;;;31.30;29.17;101214.88;5032192;28;20067;-66
2021/06/18 05:39:20;;;;;;;1.65;0.70;;;;;;;31.33;29.13;101218.25;5033287;28;20581;-66
2021/06/18 05:41:48;;;;;;;0.90;0.57;;;;;;;31.71;28.61;101218.53;5033385;28;20038;-65
2021/06/18 05:44:16;;;;;;;1.67;0.70;;;;;;;32.02;28.49;101223.75;5033298;28;20408;-66
2021/06/18 05:46:44;;;;;;;2.20;0.80;;;;;;;32.10;27.75;101215.03;5014834;28;20038;-66
2021/06/18 05:49:12;;;;;;;2.13;0.77;;;;;;;32.04;27.18;101218.19;5032443;28;20037;-66
2021/06/18 05:51:40;;;;;;;3.25;0.80;;;;;;;32.18;27.14;101217.28;5031621;28;20081;-66
2021/06/18 05:54:10;;;;;;;2.35;0.75;;;;;;;32.31;26.67;101227.28;5032765;28;20037;-66
2021/06/18 05:56:39;;;;;;;2.08;0.57;;;;;;;32.39;27.04;101222.19;5032958;28;20042;-66
2021/06/18 05:59:07;;;;;;;2.03;0.70;;;;;;;32.28;27.36;101212.97;5032900;28;20132;-66
2021/06/18 06:01:34;;;;;;;2.13;0.70;;;;;;;32.36;26.89;101218.81;5032258;28;20069;-66
2021/06/18 06:04:02;;;;;;;4.13;1.70;;;;;;;32.45;26.78;101219.03;5032706;28;20116;-66
2021/06/18 06:06:30;;;;;;;2.63;0.65;;;;;;;32.49;26.82;101222.44;5032483;28;20042;-65
2021/06/18 06:08:57;;;;;;;1.85;0.77;;;;;;;32.29;27.04;101214.72;5018174;28;20124;-65
2021/06/18 06:11:29;;;;;;;1.40;0.43;;;;;;;32.42;27.46;101219.25;5031872;28;20059;-65
2021/06/18 06:14:02;;;;;;;3.05;0.90;;;;;;;32.55;27.29;101224.75;5031771;28;20029;-66
2021/06/18 06:16:30;;;;;;;1.85;0.90;;;;;;;32.25;27.23;101222.25;5030480;28;20106;-65
2021/06/18 06:18:57;;;;;;;2.22;0.60;;;;;;;32.38;26.61;101214.97;5031457;28;20493;-65
2021/06/18 06:21:25;;;;;;;1.85;0.68;;;;;;;32.45;26.11;101219.03;5032237;28;20057;-65
2021/06/18 06:23:52;;;;;;;1.45;0.77;;;;;;;32.27;26.17;101219.41;5032116;28;20468;-66
2021/06/18 06:26:21;;;;;;;2.50;0.50;;;;;;;32.23;25.76;101212.41;5032152;28;20533;-66
2021/06/18 06:28:50;;;;;;;1.85;0.80;;;;;;;32.26;25.51;101207.59;5032730;28;20116;-66
2021/06/18 06:31:17;;;;;;;1.63;0.70;;;;;;;32.36;24.96;101207.88;5045058;28;20049;-65
2021/06/18 06:33:44;;;;;;;4.57;0.80;;;;;;;32.49;24.72;101208.78;5032167;28;20045;-66
2021/06/18 06:36:12;;;;;;;2.38;0.70;;;;;;;32.62;24.13;101214.28;5031456;28;20120;-66
2021/06/18 06:38:40;;;;;;;2.40;0.80;;;;;;;32.68;24.19;101211.16;5032179;28;20064;-65
2021/06/18 06:41:07;;;;;;;1.73;0.65;;;;;;;32.88;23.80;101210.63;5031749;28;20049;-66
2021/06/18 06:43:35;;;;;;;1.38;0.63;;;;;;;33.14;23.91;101206.91;5031428;28;20748;-66
2021/06/18 06:46:04;;;;;;;1.10;0.50;;;;;;;33.06;23.07;101201.09;5030963;28;20117;-65
2021/06/18 06:48:32;;;;;;;1.20;0.60;;;;;;;33.09;23.23;101203.59;5025784;28;20121;-66
2021/06/18 06:50:59;;;;;;;1.88;0.57;;;;;;;33.29;23.42;101193.13;5029002;28;20552;-66
2021/06/18 06:53:27;;;;;;;2.17;0.63;;;;;;;33.32;22.88;101191.03;5011884;28;20050;-66
2021/06/18 06:55:54;;;;;;;3.72;0.70;;;;;;;33.10;23.30;101201.75;5012147;28;20052;-66
2021/06/18 06:58:21;;;;;;;2.58;0.80;;;;;;;32.94;23.20;101195.63;5011849;28;20046;-66
2021/06/18 07:00:49;;;;;;;1.45;0.70;;;;;;;32.84;23.06;101196.28;5012441;28;20034;-66
2021/06/18 07:03:18;;;;;;;1.77;1.02;;;;;;;32.79;24.01;101198.47;5031263;28;20044;-66
2021/06/18 07:05:46;;;;;;;2.00;0.57;;;;;;;32.72;23.21;101202.59;5031297;28;20513;-67
2021/06/18 07:08:17;;;;;;;1.60;0.60;;;;;;;32.77;22.47;101202.28;5031807;28;20042;-66
2021/06/18 07:10:45;;;;;;;1.20;0.73;;;;;;;32.70;22.20;101204.56;5031837;28;20052;-66
2021/06/18 07:13:12;;;;;;;5.70;0.70;;;;;;;32.64;22.92;101206.81;5030894;28;20041;-66
2021/06/18 07:15:40;;;;;;;1.27;0.65;;;;;;;32.73;22.98;101203.47;5030603;28;20052;-66
2021/06/18 07:18:08;;;;;;;1.65;0.60;;;;;;;32.84;22.59;101199.00;5031240;28;20451;-66
2021/06/18 07:20:37;;;;;;;2.75;0.65;;;;;;;32.78;22.66;101198.56;5030836;28;20088;-66
2021/06/18 07:23:05;;;;;;;2.05;0.50;;;;;;;32.76;23.12;101204.13;5031631;28;20059;-66
2021/06/18 07:25:32;;;;;;;1.17;0.80;;;;;;;33.05;23.50;101203.94;5031032;28;20046;-66
2021/06/18 07:28:00;;;;;;;3.22;0.80;;;;;;;33.08;23.37;101206.47;5031225;28;20061;-66
2021/06/18 07:30:27;;;;;;;2.42;0.80;;;;;;;32.97;23.08;101203.59;5029842;28;20037;-65
2021/06/18 07:32:57;;;;;;;2.00;0.63;;;;;;;32.99;23.41;101198.91;5030498;28;20033;-65
2021/06/18 07:35:24;;;;;;;3.85;1.10;;;;;;;33.00;23.84;101192.47;5030652;28;20038;-66
2021/06/18 07:37:53;;;;;;;4.15;1.00;;;;;;;32.74;24.42;101199.78;5030961;28;20116;-66
2021/06/18 07:40:21;;;;;;;1.00;0.65;;;;;;;32.71;25.25;101200.84;5030489;28;20569;-66
2021/06/18 07:42:49;;;;;;;2.75;0.65;;;;;;;32.79;25.10;101189.38;5031625;28;20497;-65
2021/06/18 07:45:17;;;;;;;0.93;0.60;;;;;;;32.73;25.60;101193.41;5030769;28;20045;-65
2021/06/18 07:47:45;;;;;;;1.80;0.70;;;;;;;32.76;26.15;101200.50;5030704;28;20042;-65
2021/06/18 07:50:14;;;;;;;1.70;0.80;;;;;;;32.79;26.51;101203.94;5030185;28;20412;-65
2021/06/18 07:52:42;;;;;;;1.40;0.70;;;;;;;32.97;26.22;101200.88;5030350;28;20059;-65
2021/06/18 07:55:17;;;;;;;1.25;0.80;;;;;;;32.87;26.64;101194.31;5030156;28;20046;-66
2021/06/18 07:57:45;;;;;;;2.63;0.73;;;;;;;32.59;26.69;101201.69;5030166;28;20041;-66
2021/06/18 08:00:13;;;;;;;2.05;0.70;;;;;;;32.82;26.51;101198.22;5030462;28;20128;-66
2021/06/18 08:02:41;;;;;;;2.10;0.90;;;;;;;32.97;26.49;101201.75;5030354;28;20056;-66
2021/06/18 08:05:11;;;;;;;3.13;1.00;;;;;;;33.11;27.00;101201.66;5029909;28;20436;-66
2021/06/18 08:07:40;;;;;;;1.02;0.52;;;;;;;33.31;27.32;101197.50;5029591;28;20045;-65
2021/06/18 08:10:09;;;;;;;1.35;0.70;;;;;;;33.27;27.65;101201.47;5029175;28;20501;-66
2021/06/18 08:12:38;;;;;;;2.25;0.85;;;;;;;33.34;27.62;101200.03;5029042;28;20053;-66
2021/06/18 08:15:07;;;;;;;2.25;0.75;;;;;;;33.33;27.43;101205.63;5029075;28;20036;-65
2021/06/18 08:17:35;;;;;;;1.05;0.43;;;;;;;33.22;27.68;101199.03;5030596;28;20057;-66
2021/06/18 08:20:05;;;;;;;4.30;0.80;;;;;;;33.07;28.55;101196.50;5030262;28;20057;-65
2021/06/18 08:22:32;;;;;;;1.85;0.82;;;;;;;33.07;28.71;101200.13;5029936;28;20045;-64
2021/06/18 08:25:02;;;;;;;3.53;0.90;;;;;;;33.18;28.43;101199.34;5029911;28;20061;-65
2021/06/18 08:27:29;;;;;;;1.17;1.00;;;;;;;33.49;27.54;101200.75;5029819;28;20057;-65
2021/06/18 08:29:59;;;;;;;4.00;1.05;;;;;;;33.47;28.06;101203.63;5030014;28;20103;-65
2021/06/18 08:32:26;;;;;;;2.65;0.90;;;;;;;33.42;27.73;101199.44;5030177;28;20540;-65
2021/06/18 08:34:54;;;;;;;5.97;1.35;;;;;;;33.46;27.95;101204.63;5029731;28;20131;-65
2021/06/18 08:37:21;;;;;;;2.55;1.25;;;;;;;33.27;28.72;101200.59;5029570;28;20048;-65
2021/06/18 08:39:49;;;;;;;3.13;1.00;;;;;;;33.45;28.68;101207.47;5030511;28;20033;-64
2021/06/18 08:42:17;;;;;;;3.45;1.27;;;;;;;33.48;29.22;101209.94;5029761;28;20137;-64
2021/06/18 08:44:45;;;;;;;2.45;0.88;;;;;;;33.22;30.12;101207.25;5029329;28;20042;-64
2021/06/18 08:47:16;;;;;;;1.35;0.77;;;;;;;33.13;30.17;101205.16;5029528;28;20121;-65
2021/06/18 08:49:44;;;;;;;5.53;1.02;;;;;;;32.98;30.60;101214.44;5029046;28;20049;-64
2021/06/18 08:52:11;;;;;;;2.17;0.90;;;;;;;33.38;30.81;101214.38;5029688;28;20140;-64
2021/06/18 08:54:44;;;;;;;2.40;1.00;;;;;;;33.45;30.56;101212.94;5029844;28;20128;-64
2021/06/18 08:57:13;;;;;;;3.25;0.88;;;;;;;33.48;30.75;101220.91;5029353;28;20053;-65
2021/06/18 08:59:42;;;;;;;2.58;1.00;;;;;;;32.92;31.78;101211.28;5029304;28;20468;-65
2021/06/18 09:02:11;;;;;;;3.10;1.35;;;;;;;32.60;31.76;101205.28;5029726;28;20033;-65
2021/06/18 09:05:03;;;;;;;2.20;0.90;;;;;;;32.64;31.70;101215.91;5029146;28;20443;-64
2021/06/18 09:07:48;;;;;;;2.38;0.85;;;;;;;32.76;31.11;101209.59;5029121;28;20045;-64
2021/06/18 09:10:33;;;;;;;2.85;1.00;;;;;;;32.92;31.74;101201.22;5028480;28;20458;-65
2021/06/18 09:13:12;;;;;;;6.32;1.00;;;;;;;32.87;31.13;101206.13;5009254;28;20038;-64
2021/06/18 09:15:41;;;;;;;1.92;1.02;;;;;;;32.98;31.97;101202.63;5022665;28;20129;-64
2021/06/18 09:18:29;;;;;;;4.05;1.30;;;;;;;33.03;32.64;101198.56;5027604;28;20052;-64
2021/06/18 09:21:16;;;;;;;3.30;1.05;;;;;;;33.08;32.59;101203.75;5026216;28;20574;-64
2021/06/18 09:23:45;;;;;;;3.30;0.90;;;;;;;33.27;32.60;101200.59;5027334;28;20069;-64
2021/06/18 09:26:33;;;;;;;3.63;1.02;;;;;;;33.33;31.87;101198.28;5027134;28;20105;-64
2021/06/18 09:29:10;;;;;;;4.28;1.00;;;;;;;32.94;31.88;101195.63;5047899;28;20052;-64
2021/06/18 09:31:42;;;;;;;1.85;1.10;;;;;;;33.02;31.85;101194.06;5047146;28;20049;-64
2021/06/18 09:34:12;;;;;;;2.80;1.00;;;;;;;32.92;32.41;101183.91;5039167;28;20053;-64
2021/06/18 09:36:41;;;;;;;2.78;0.98;;;;;;;33.19;32.36;101182.84;5027689;28;20041;-64
2021/06/18 09:39:13;;;;;;;2.78;1.00;;;;;;;33.52;32.21;101184.13;5028618;28;20041;-65
2021/06/18 09:41:42;;;;;;;5.20;1.35;;;;;;;33.33;32.23;101191.94;5028488;28;20120;-64
2021/06/18 09:44:10;;;;;;;2.53;0.90;;;;;;;33.42;31.57;101185.75;5028205;28;20112;-64
2021/06/18 09:46:49;;;;;;;3.78;1.30;;;;;;;33.01;31.36;101186.00;5027387;28;20046;-64
2021/06/18 09:49:41;;;;;;;2.78;0.98;;;;;;;32.53;31.83;101187.56;5018799;28;20497;-65
2021/06/18 09:52:11;;;;;;;1.83;1.17;;;;;;;32.27;31.97;101179.28;5036082;28;20029;-63
2021/06/18 09:54:42;;;;;;;2.25;1.15;;;;;;;31.97;32.68;101174.00;5028692;28;20051;-64
2021/06/18 09:57:12;;;;;;;1.92;0.95;;;;;;;31.77;32.38;101177.16;5028067;28;20053;-64
2021/06/18 09:59:55;;;;;;;3.28;1.10;;;;;;;31.82;32.39;101172.31;5027442;28;20057;-64
2021/06/18 10:02:34;;;;;;;4.30;1.13;;;;;;;31.49;33.60;101178.09;5042418;28;20436;-64
2021/06/18 10:05:04;;;;;;;1.90;1.00;;;;;;;31.23;33.00;101165.25;5032974;28;20141;-64
2021/06/18 10:07:35;;;;;;;3.70;1.02;;;;;;;31.24;32.94;101164.28;5028232;28;20571;-63
2021/06/18 10:10:06;;;;;;;3.17;1.00;;;;;;;31.63;32.23;101166.31;5012089;28;20414;-64
2021/06/18 10:12:33;;;;;;;4.47;1.30;;;;;;;31.68;32.12;101169.59;5009903;28;20543;-64
2021/06/18 10:15:06;;;;;;;3.00;1.13;;;;;;;31.54;32.68;101154.09;5035035;28;20091;-64
2021/06/18 10:17:35;;;;;;;4.07;1.20;;;;;;;31.39;33.35;101156.94;5027767;28;20042;-65
2021/06/18 10:20:06;;;;;;;4.18;1.90;;;;;;;31.15;35.09;101140.31;5028401;28;20278;-64
2021/06/18 10:22:38;;;;;;;2.25;1.13;;;;;;;31.03;34.10;101160.16;5030505;28;20584;-64
2021/06/18 10:25:10;;;;;;;2.45;1.35;;;;;;;30.81;34.24;101156.03;5032462;28;20038;-64
2021/06/18 10:27:44;;;;;;;1.75;1.08;;;;;;;31.06;34.88;101158.13;5032008;28;20052;-64
2021/06/18 10:30:25;;;;;;;5.32;1.33;;;;;;;31.31;34.53;101159.31;5028866;28;20044;-64
2021/06/18 10:32:53;;;;;;;3.13;1.45;;;;;;;31.22;35.43;101148.00;5042882;28;20132;-64
2021/06/18 10:35:41;;;;;;;3.10;1.27;;;;;;;31.32;35.01;101156.44;5038599;28;20048;-64
2021/06/18 10:38:14;;;;;;;3.15;1.13;;;;;;;31.60;34.73;101156.44;5031147;28;20410;-63
2021/06/18 10:40:45;;;;;;;4.18;1.05;;;;;;;31.60;34.17;101153.72;5031094;28;20052;-64
2021/06/18 10:43:14;;;;;;;3.50;1.33;;;;;;;31.42;34.00;101154.03;5028693;28;20141;-64
2021/06/18 10:46:08;;;;;;;2.55;1.00;;;;;;;31.16;34.54;101156.59;5030302;28;20143;-64
2021/06/18 10:48:58;;;;;;;8.25;1.58;;;;;;;31.18;34.18;101154.63;5037581;28;20458;-64
2021/06/18 10:51:34;;;;;;;2.67;1.40;;;;;;;31.25;35.50;101155.09;5026410;28;20461;-64
2021/06/18 10:54:07;;;;;;;4.45;1.50;;;;;;;31.18;36.27;101159.19;5042080;28;20034;-63
2021/06/18 10:57:03;;;;;;;4.05;1.50;;;;;;;31.16;36.01;101153.84;5030169;28;20056;-64
2021/06/18 10:59:33;;;;;;;3.40;1.40;;;;;;;31.22;36.24;101150.72;5049866;28;20037;-64
2021/06/18 11:02:02;;;;;;;3.17;1.10;;;;;;;31.48;35.65;101153.63;5050064;28;20110;-64
2021/06/18 11:04:43;;;;;;;3.42;1.17;;;;;;;31.31;36.52;101151.97;5050920;28;20586;-63
2021/06/18 11:07:21;;;;;;;3.35;1.52;;;;;;;31.07;36.81;101148.97;5033604;28;20045;-63
2021/06/18 11:09:52;;;;;;;4.05;1.35;;;;;;;31.31;35.99;101142.94;5026486;28;20557;-64
2021/06/18 11:12:46;;;;;;;4.38;1.30;;;;;;;31.55;35.05;101146.78;5050673;28;20033;-64
2021/06/18 11:15:38;;;;;;;2.15;1.10;;;;;;;31.58;35.81;101157.47;5033642;28;20099;-65
2021/06/18 11:18:13;;;;;;;2.92;1.35;;;;;;;31.66;35.97;101147.84;5024495;28;20413;-65
2021/06/18 11:20:58;;;;;;;3.35;1.42;;;;;;;31.68;36.50;101145.03;5044387;28;20498;-65
2021/06/18 11:23:32;;;;;;;1.75;1.08;;;;;;;31.67;36.79;101149.63;5030451;28;20045;-65
2021/06/18 11:26:05;;;;;;;2.05;1.10;;;;;;;31.68;36.84;101147.75;5030276;28;20523;-64
2021/06/18 11:28:50;;;;;;;2.50;1.10;;;;;;;31.85;36.58;101152.09;5030814;28;20037;-64
2021/06/18 11:31:39;;;;;;;2.42;1.30;;;;;;;31.66;36.80;101152.44;5050084;28;20048;-65
2021/06/18 11:34:07;;;;;;;4.90;1.20;;;;;;;31.58;36.54;101152.91;5031345;28;20046;-65
2021/06/18 11:36:44;;;;;;;3.58;1.40;;;;;;;31.74;37.09;101144.63;5025300;28;20110;-64
2021/06/18 11:39:16;;;;;;;4.13;1.60;;;;;;;31.93;36.50;101147.00;5029188;28;20041;-64
2021/06/18 11:41:49;;;;;;;2.58;1.02;;;;;;;31.84;36.39;101147.59;5030875;28;20057;-64